Conceicao do Coite, Brazil
Current Conditions -  °F | °C
As of 1:00 PM on Friday 19 Dec 2014 (Local Time) from SBSV Reporting Station
Light Rain Light Rain  
Wind Chill: 77°   Ceiling: 1000
Heat Index: 78°   Visibility: 1.8mi
Dew Point: 73°   Wind: 14mph
Humidity: 89%   Direction: 80°E
Pressure: 29.85"   Gusts: NA
Location:  11.56°S, 39.28°W
Report Text: SBSV 191600Z 08012KT 3000 -RA BR BKN010 BKN015 FEW020TCU OVC070 25/23 Q1011 RERA
Loading
Personal Weather Stations






























Interactive Weather Map New forecast layout! Learn more

10-Day Weather Forecast

Advertisements
Track Severe Weather on mobile